createdAt,value
2017-06-04T00:00:53.042Z,40.38
2017-06-04T00:02:02.079Z,40.48
2017-06-04T00:03:10.854Z,40.48
2017-06-04T00:04:19.639Z,41.06
2017-06-04T00:05:28.729Z,40.96
2017-06-04T00:06:37.787Z,40.96
2017-06-04T00:07:46.562Z,40.58
2017-06-04T00:08:55.334Z,40.58
2017-06-04T00:10:04.106Z,40.58
2017-06-04T00:11:12.875Z,40.38
2017-06-04T00:12:22.868Z,40.67
2017-06-04T00:13:31.918Z,40.96
2017-06-04T00:14:40.952Z,41.16
2017-06-04T00:15:50.339Z,40.58
2017-06-04T00:16:59.115Z,40.67
2017-06-04T00:18:08.198Z,41.16
2017-06-04T00:19:17.277Z,41.06
2017-06-04T00:20:26.352Z,40.48
2017-06-04T00:21:35.438Z,41.16
2017-06-04T00:22:44.816Z,40.58
2017-06-04T00:23:53.571Z,40.67
2017-06-04T00:25:02.602Z,40.86
2017-06-04T00:26:11.681Z,41.24
2017-06-04T00:27:21.069Z,40.56
2017-06-04T00:28:30.331Z,40.56
2017-06-04T00:29:39.388Z,41.16
2017-06-04T00:30:48.763Z,40.48
2017-06-04T00:31:57.529Z,40.48
2017-06-04T00:33:06.913Z,41.06
2017-06-04T00:34:15.685Z,41.16
2017-06-04T00:35:24.766Z,41.14
2017-06-04T00:36:33.844Z,41.04
2017-06-04T00:37:42.911Z,40.48
2017-06-04T00:38:51.687Z,40.94
2017-06-04T00:40:00.443Z,40.58
2017-06-04T00:41:09.155Z,40.56
2017-06-04T00:42:18.194Z,40.56
2017-06-04T00:43:27.578Z,40.46
2017-06-04T00:44:36.340Z,41.04
2017-06-04T00:45:45.105Z,40.75
2017-06-04T00:46:53.883Z,40.75
2017-06-04T00:48:02.656Z,40.56
2017-06-04T00:49:11.739Z,41.04
2017-06-04T00:50:20.509Z,40.36
2017-06-04T00:51:29.531Z,40.65
2017-06-04T00:52:38.757Z,40.65
2017-06-04T00:53:47.508Z,40.65
2017-06-04T00:54:56.236Z,40.46
2017-06-04T00:56:05.008Z,40.26
2017-06-04T00:57:13.811Z,40.56
2017-06-04T00:58:22.884Z,40.46
2017-06-04T00:59:32.264Z,40.46
2017-06-04T01:00:41.341Z,41.04
2017-06-04T01:01:50.409Z,40.36
2017-06-04T01:02:59.458Z,40.46
2017-06-04T01:04:08.472Z,40.26
2017-06-04T01:05:17.197Z,40.56
2017-06-04T01:06:26.862Z,40.46
2017-06-04T01:07:36.213Z,40.75
2017-06-04T01:08:45.276Z,40.84
2017-06-04T01:09:54.010Z,40.56
2017-06-04T01:11:02.772Z,39.78
2017-06-04T01:12:11.846Z,39.97
2017-06-04T01:13:20.624Z,39.97
2017-06-04T01:14:29.404Z,40.46
2017-06-04T01:15:38.487Z,40.07
2017-06-04T01:16:47.231Z,40.07
2017-06-04T01:17:56.006Z,39.78
2017-06-04T01:19:04.770Z,39.78
2017-06-04T01:20:14.143Z,40.17
2017-06-04T01:21:23.201Z,39.88
2017-06-04T01:22:31.931Z,40.07
2017-06-04T01:23:41.321Z,40.26
2017-06-04T01:24:50.403Z,39.59
2017-06-04T01:25:59.450Z,40.07
2017-06-04T01:27:08.191Z,39.97
2017-06-04T01:28:17.529Z,39.69
2017-06-04T01:29:26.337Z,39.88
2017-06-04T01:30:35.418Z,39.88
2017-06-04T01:31:44.492Z,39.88
2017-06-04T01:32:53.268Z,39.86
2017-06-04T01:34:02.346Z,39.95
2017-06-04T01:35:11.394Z,39.57
2017-06-04T01:36:20.153Z,39.59
2017-06-04T01:37:29.534Z,39.95
2017-06-04T01:38:38.915Z,40.07
2017-06-04T01:39:47.698Z,39.95
2017-06-04T01:40:56.779Z,39.76
2017-06-04T01:42:05.548Z,40.05
2017-06-04T01:43:14.315Z,40.15
2017-06-04T01:44:23.081Z,39.67
2017-06-04T01:45:32.128Z,39.97
2017-06-04T01:46:41.166Z,39.57
2017-06-04T01:47:50.533Z,39.76
2017-06-04T01:48:59.295Z,39.95
2017-06-04T01:50:08.347Z,39.67
2017-06-04T01:51:17.382Z,39.47
2017-06-04T01:52:26.462Z,40.05
2017-06-04T01:53:35.229Z,39.76
2017-06-04T01:54:44.308Z,39.95
2017-06-04T01:55:53.357Z,39.95
2017-06-04T01:57:02.403Z,40.05
2017-06-04T01:58:11.437Z,39.47
2017-06-04T01:59:20.505Z,39.76
2017-06-04T02:00:29.558Z,40.05
2017-06-04T02:01:38.287Z,39.76
2017-06-04T02:02:47.059Z,39.76
2017-06-04T02:03:55.832Z,39.47
2017-06-04T02:05:04.906Z,40.05
2017-06-04T02:06:13.970Z,39.57
2017-06-04T02:07:23.035Z,39.47
2017-06-04T02:08:32.411Z,39.95
2017-06-04T02:09:41.192Z,40.05
2017-06-04T02:10:50.271Z,39.57
2017-06-04T02:11:59.352Z,39.47
2017-06-04T02:13:08.127Z,39.67
2017-06-04T02:14:17.199Z,40.15
2017-06-04T02:15:25.974Z,39.76
2017-06-04T02:16:34.723Z,40.15
2017-06-04T02:17:43.459Z,40.34
2017-06-04T02:18:52.547Z,39.95
2017-06-04T02:20:01.624Z,40.05
2017-06-04T02:21:10.359Z,39.57
2017-06-04T02:22:19.442Z,39.57
2017-06-04T02:23:28.517Z,40.15
2017-06-04T02:24:37.316Z,40.25
2017-06-04T02:25:46.391Z,40.05
2017-06-04T02:26:55.158Z,39.67
2017-06-04T02:28:04.233Z,40.34
2017-06-04T02:29:12.998Z,39.95
2017-06-04T02:30:22.662Z,40.25
2017-06-04T02:31:31.683Z,39.95
2017-06-04T02:32:41.097Z,40.05
2017-06-04T02:33:50.185Z,39.95
2017-06-04T02:34:59.229Z,40.25
2017-06-04T02:36:08.868Z,39.86
2017-06-04T02:37:17.925Z,39.86
2017-06-04T02:38:27.236Z,40.15
2017-06-04T02:39:35.951Z,39.95
2017-06-04T02:40:44.709Z,39.76
2017-06-04T02:41:53.467Z,39.76
2017-06-04T02:43:02.803Z,40.05
2017-06-04T02:44:11.517Z,39.95
2017-06-04T02:45:20.560Z,39.67
2017-06-04T02:46:29.627Z,39.57
2017-06-04T02:47:38.691Z,39.57
2017-06-04T02:48:47.751Z,39.57
2017-06-04T02:49:56.811Z,39.67
2017-06-04T02:51:05.569Z,40.05
2017-06-04T02:52:14.318Z,39.57
2017-06-04T02:53:23.672Z,40.05
2017-06-04T02:54:32.729Z,39.57
2017-06-04T02:55:41.485Z,39.76
2017-06-04T02:56:50.535Z,39.76
2017-06-04T02:57:59.283Z,40.05
2017-06-04T02:59:08.035Z,39.57
2017-06-04T03:00:17.062Z,39.76
2017-06-04T03:01:26.684Z,39.76
2017-06-04T03:02:35.740Z,39.86
2017-06-04T03:03:44.465Z,39.67
2017-06-04T03:04:53.485Z,39.76
2017-06-04T03:06:02.238Z,39.47
2017-06-04T03:07:10.997Z,39.67
2017-06-04T03:08:19.789Z,39.67
2017-06-04T03:09:28.849Z,39.76
2017-06-04T03:10:37.906Z,39.64
2017-06-04T03:11:46.978Z,39.74
2017-06-04T03:12:55.733Z,39.67
2017-06-04T03:14:04.487Z,39.28
2017-06-04T03:15:13.541Z,39.57
2017-06-04T03:16:23.200Z,39.76
2017-06-04T03:17:31.964Z,39.37
2017-06-04T03:18:41.019Z,39.47
2017-06-04T03:19:50.274Z,39.47
2017-06-04T03:20:59.332Z,39.37
2017-06-04T03:22:08.695Z,39.37
2017-06-04T03:23:17.453Z,39.37
2017-06-04T03:24:26.514Z,39.36
2017-06-04T03:25:35.576Z,39.64
2017-06-04T03:26:44.310Z,39.36
2017-06-04T03:27:53.026Z,39.45
2017-06-04T03:29:02.084Z,39.45
2017-06-04T03:30:10.837Z,39.45
2017-06-04T03:31:19.588Z,39.55
2017-06-04T03:32:28.348Z,39.06
2017-06-04T03:33:37.081Z,39.45
2017-06-04T03:34:46.076Z,39.55
2017-06-04T03:35:55.391Z,39.06
2017-06-04T03:37:04.751Z,39.36
2017-06-04T03:38:13.809Z,39.36
2017-06-04T03:39:23.162Z,39.45
2017-06-04T03:40:32.193Z,39.16
2017-06-04T03:41:41.207Z,39.16
2017-06-04T03:42:50.619Z,39.36
2017-06-04T03:43:59.645Z,39.47
2017-06-04T03:45:08.674Z,39.36
2017-06-04T03:46:17.737Z,39.37
2017-06-04T03:47:26.519Z,39.36
2017-06-04T03:48:35.856Z,39.28
2017-06-04T03:49:44.569Z,39.36
2017-06-04T03:50:53.928Z,39.06
2017-06-04T03:52:02.987Z,39.47
2017-06-04T03:53:12.052Z,39.16
2017-06-04T03:54:20.814Z,39.18
2017-06-04T03:55:29.589Z,39.06
2017-06-04T03:56:38.619Z,39.18
2017-06-04T03:57:48.244Z,39.09
2017-06-04T03:58:56.969Z,39.37
2017-06-04T04:00:05.683Z,39.09
2017-06-04T04:01:14.438Z,39.47
2017-06-04T04:02:23.499Z,39.57
2017-06-04T04:03:32.857Z,39.18
2017-06-04T04:04:41.911Z,38.99
2017-06-04T04:05:50.970Z,39.09
2017-06-04T04:06:59.718Z,39.09
2017-06-04T04:08:09.073Z,39.09
2017-06-04T04:09:17.803Z,38.89
2017-06-04T04:10:26.517Z,39.09
2017-06-04T04:11:36.155Z,38.99
2017-06-04T04:12:45.174Z,39.18
2017-06-04T04:13:54.226Z,39.18
2017-06-04T04:15:02.978Z,38.99
2017-06-04T04:16:12.042Z,38.99
2017-06-04T04:17:21.401Z,39.09
2017-06-04T04:18:30.453Z,38.89
2017-06-04T04:19:39.206Z,38.99
2017-06-04T04:20:47.933Z,38.7
2017-06-04T04:21:56.641Z,38.79
2017-06-04T04:23:05.675Z,38.89
2017-06-04T04:24:14.667Z,38.7
2017-06-04T04:25:23.379Z,38.89
2017-06-04T04:26:32.140Z,38.79
2017-06-04T04:27:40.916Z,38.89
2017-06-04T04:28:49.671Z,38.7
2017-06-04T04:29:58.424Z,38.7
2017-06-04T04:31:07.756Z,38.6
2017-06-04T04:32:16.473Z,38.41
2017-06-04T04:33:25.526Z,38.71
2017-06-04T04:34:34.276Z,38.7
2017-06-04T04:35:43.309Z,38.5
2017-06-04T04:36:52.326Z,38.89
2017-06-04T04:38:01.380Z,38.79
2017-06-04T04:39:10.169Z,38.71
2017-06-04T04:40:19.229Z,38.5
2017-06-04T04:41:28.293Z,38.53
2017-06-04T04:42:37.046Z,38.43
2017-06-04T04:43:46.105Z,38.41
2017-06-04T04:44:55.188Z,38.53
2017-06-04T04:46:04.240Z,38.23
2017-06-04T04:47:13.297Z,38.6
2017-06-04T04:48:22.352Z,38.33
2017-06-04T04:49:31.709Z,38.81
2017-06-04T04:50:40.734Z,38.71
2017-06-04T04:51:49.448Z,38.62
2017-06-04T04:52:58.247Z,38.71
2017-06-04T04:54:07.902Z,38.71
2017-06-04T04:55:16.963Z,38.43
2017-06-04T04:56:26.024Z,38.33
2017-06-04T04:57:34.783Z,38.71
2017-06-04T04:58:43.556Z,38.71
2017-06-04T04:59:52.587Z,38.81
2017-06-04T05:01:01.298Z,38.71
2017-06-04T05:02:10.639Z,38.13
2017-06-04T05:03:19.692Z,38.62
2017-06-04T05:04:29.371Z,38.53
2017-06-04T05:05:38.641Z,38.71
2017-06-04T05:06:47.706Z,38.81
2017-06-04T05:07:57.368Z,38.33
2017-06-04T05:09:06.703Z,38.33
2017-06-04T05:10:15.728Z,38.71
2017-06-04T05:11:24.794Z,38.71
2017-06-04T05:12:33.557Z,38.43
2017-06-04T05:13:42.589Z,38.53
2017-06-04T05:14:51.992Z,38.33
2017-06-04T05:16:01.324Z,38.62
2017-06-04T05:17:10.036Z,38.62
2017-06-04T05:18:18.791Z,38.71
2017-06-04T05:19:27.835Z,38.43
2017-06-04T05:20:37.160Z,38.53
2017-06-04T05:21:45.910Z,38.62
2017-06-04T05:22:55.278Z,38.53
2017-06-04T05:24:04.336Z,38.62
2017-06-04T05:25:13.689Z,38.62
2017-06-04T05:26:22.746Z,38.71
2017-06-04T05:27:32.103Z,38.71
2017-06-04T05:28:41.163Z,38.33
2017-06-04T05:29:49.910Z,38.62
2017-06-04T05:30:58.857Z,38.62
2017-06-04T05:32:07.623Z,38.53
2017-06-04T05:33:16.677Z,38.81
2017-06-04T05:34:25.435Z,38.62
2017-06-04T05:35:34.492Z,38.62
2017-06-04T05:36:43.525Z,38.43
2017-06-04T05:37:52.536Z,38.43
2017-06-04T05:39:01.290Z,38.53
2017-06-04T05:40:10.366Z,38.33
2017-06-04T05:41:19.097Z,38.62
2017-06-04T05:42:28.154Z,38.73
2017-06-04T05:43:37.214Z,38.71
2017-06-04T05:44:45.991Z,38.62
2017-06-04T05:45:54.807Z,38.71
2017-06-04T05:47:03.555Z,38.83
2017-06-04T05:48:12.301Z,38.33
2017-06-04T05:49:21.063Z,38.71
2017-06-04T05:50:30.122Z,38.64
2017-06-04T05:51:38.847Z,38.64
2017-06-04T05:52:47.839Z,38.43
2017-06-04T05:53:56.551Z,38.73
2017-06-04T05:55:05.907Z,38.73
2017-06-04T05:56:14.965Z,38.83
2017-06-04T05:57:23.998Z,38.54
2017-06-04T05:58:32.714Z,38.64
2017-06-04T05:59:41.769Z,38.64
2017-06-04T06:00:50.832Z,38.54
2017-06-04T06:01:59.589Z,38.45
2017-06-04T06:03:08.625Z,38.35
2017-06-04T06:04:17.311Z,38.45
2017-06-04T06:05:26.334Z,38.54
2017-06-04T06:06:35.064Z,38.35
2017-06-04T06:07:43.778Z,38.54
2017-06-04T06:08:52.537Z,38.45
2017-06-04T06:10:01.604Z,38.54
2017-06-04T06:11:10.922Z,38.54
2017-06-04T06:12:19.984Z,38.35
2017-06-04T06:13:28.737Z,38.64
2017-06-04T06:14:37.461Z,38.35
2017-06-04T06:15:46.177Z,38.54
2017-06-04T06:16:55.546Z,38.25
2017-06-04T06:18:04.507Z,38.25
2017-06-04T06:19:13.571Z,38.15
2017-06-04T06:20:22.327Z,38.25
2017-06-04T06:21:31.356Z,38.15
2017-06-04T06:22:40.076Z,37.96
2017-06-04T06:23:49.134Z,38.35
2017-06-04T06:24:58.165Z,38.25
2017-06-04T06:26:07.504Z,38.25
2017-06-04T06:27:16.828Z,38.25
2017-06-04T06:28:25.582Z,38.25
2017-06-04T06:29:34.634Z,38.25
2017-06-04T06:30:43.383Z,38.15
2017-06-04T06:31:52.446Z,38.35
2017-06-04T06:33:01.502Z,38.15
2017-06-04T06:34:10.572Z,38.15
2017-06-04T06:35:19.321Z,38.25
2017-06-04T06:36:28.377Z,38.25
2017-06-04T06:37:37.128Z,37.96
2017-06-04T06:38:45.887Z,37.96
2017-06-04T06:39:54.931Z,37.77
2017-06-04T06:41:03.660Z,37.77
2017-06-04T06:42:12.979Z,37.77
2017-06-04T06:43:21.694Z,37.87
2017-06-04T06:44:31.013Z,37.67
2017-06-04T06:45:40.378Z,37.77
2017-06-04T06:46:49.398Z,37.87
2017-06-04T06:47:58.414Z,37.77
2017-06-04T06:49:07.466Z,37.77
2017-06-04T06:50:16.199Z,37.79
2017-06-04T06:51:24.914Z,37.79
2017-06-04T06:52:33.935Z,37.79
2017-06-04T06:53:42.988Z,37.49
2017-06-04T06:54:51.735Z,37.57
2017-06-04T06:56:00.496Z,37.77
2017-06-04T06:57:09.251Z,37.69
2017-06-04T06:58:18.313Z,37.69
2017-06-04T06:59:27.066Z,37.4
2017-06-04T07:00:36.035Z,37.49
2017-06-04T07:01:45.097Z,37.49
2017-06-04T07:02:53.851Z,37.4
2017-06-04T07:04:02.605Z,37.4
2017-06-04T07:05:11.360Z,37.69
2017-06-04T07:06:20.121Z,37.59
2017-06-04T07:07:28.876Z,37.3
2017-06-04T07:08:38.564Z,37.11
2017-06-04T07:09:47.580Z,37.3
2017-06-04T07:10:56.343Z,37.3
2017-06-04T07:12:05.398Z,37.3
2017-06-04T07:13:14.149Z,37.01
2017-06-04T07:14:23.207Z,37.4
2017-06-04T07:15:31.960Z,36.82
2017-06-04T07:16:40.998Z,36.62
2017-06-04T07:17:50.022Z,36.62
2017-06-04T07:18:59.070Z,36.82
2017-06-04T07:20:07.832Z,36.82
2017-06-04T07:21:17.191Z,36.52
2017-06-04T07:22:25.948Z,36.54
2017-06-04T07:23:34.986Z,36.54
2017-06-04T07:24:43.720Z,36.54
2017-06-04T07:25:52.474Z,36.64
2017-06-04T07:27:01.833Z,36.64
2017-06-04T07:28:10.861Z,36.64
2017-06-04T07:29:19.916Z,36.83
2017-06-04T07:30:28.642Z,36.83
2017-06-04T07:31:37.362Z,37.03
2017-06-04T07:32:46.119Z,36.74
2017-06-04T07:33:55.224Z,36.74
2017-06-04T07:35:04.292Z,36.93
2017-06-04T07:36:13.291Z,36.74
2017-06-04T07:37:22.326Z,36.64
2017-06-04T07:38:31.620Z,36.64
2017-06-04T07:39:40.341Z,36.44
2017-06-04T07:40:49.699Z,36.44
2017-06-04T07:41:58.762Z,36.44
2017-06-04T07:43:07.825Z,36.44
2017-06-04T07:44:17.165Z,36.25
2017-06-04T07:45:25.870Z,36.35
2017-06-04T07:46:34.583Z,36.25
2017-06-04T07:47:43.332Z,36.25
2017-06-04T07:48:52.097Z,36.16
2017-06-04T07:50:00.852Z,36.16
2017-06-04T07:51:09.907Z,36.16
2017-06-04T07:52:18.660Z,36.16
2017-06-04T07:53:27.392Z,35.86
2017-06-04T07:54:36.112Z,35.86
2017-06-04T07:55:45.469Z,36.16
2017-06-04T07:56:54.534Z,35.67
2017-06-04T07:58:03.602Z,36.35
2017-06-04T07:59:12.939Z,36.44
2017-06-04T08:00:21.955Z,35.88
2017-06-04T08:01:30.709Z,35.86
2017-06-04T08:02:40.071Z,35.88
2017-06-04T08:03:49.129Z,35.77
2017-06-04T08:04:58.495Z,35.88
2017-06-04T08:06:07.558Z,35.98
2017-06-04T08:07:16.595Z,35.88
2017-06-04T08:08:25.583Z,35.98
2017-06-04T08:09:34.271Z,35.78
2017-06-04T08:10:43.289Z,35.78
2017-06-04T08:11:52.323Z,35.98
2017-06-04T08:13:01.314Z,35.88
2017-06-04T08:14:10.341Z,35.49
2017-06-04T08:15:19.093Z,35.61
2017-06-04T08:16:28.185Z,35.13
2017-06-04T08:17:37.239Z,35.32
2017-06-04T08:18:46.634Z,35.22
2017-06-04T08:19:55.389Z,35.32
2017-06-04T08:21:04.745Z,35.32
2017-06-04T08:22:13.478Z,35.03
2017-06-04T08:23:22.493Z,35.13
2017-06-04T08:24:31.243Z,35.03
2017-06-04T08:25:40.301Z,35.51
2017-06-04T08:26:49.052Z,35.03
2017-06-04T08:27:58.420Z,35.13
2017-06-04T08:29:07.485Z,35.32
2017-06-04T08:30:16.519Z,35.32
2017-06-04T08:31:25.534Z,35.32
2017-06-04T08:32:34.594Z,35.13
2017-06-04T08:33:43.327Z,35.13
2017-06-04T08:34:52.341Z,34.64
2017-06-04T08:36:01.095Z,34.74
2017-06-04T08:37:09.837Z,34.66
2017-06-04T08:38:18.858Z,34.46
2017-06-04T08:39:27.916Z,34.46
2017-06-04T08:40:36.703Z,34.75
2017-06-04T08:41:45.760Z,34.64
2017-06-04T08:42:54.507Z,34.83
2017-06-04T08:44:03.234Z,34.64
2017-06-04T08:45:12.559Z,35.13
2017-06-04T08:46:21.922Z,35.13
2017-06-04T08:47:30.984Z,35.13
2017-06-04T08:48:40.562Z,35.13
2017-06-04T08:49:49.615Z,35.49
2017-06-04T08:50:58.720Z,35.41
2017-06-04T08:52:07.477Z,35.51
2017-06-04T08:53:16.238Z,35.51
2017-06-04T08:54:25.275Z,35.13
2017-06-04T08:55:34.600Z,35.03
2017-06-04T08:56:43.656Z,35.13
2017-06-04T08:57:52.715Z,34.74
2017-06-04T08:59:01.437Z,34.83
2017-06-04T09:00:10.150Z,34.74
2017-06-04T09:01:18.880Z,34.93
2017-06-04T09:02:28.510Z,34.85
2017-06-04T09:03:37.274Z,34.64
2017-06-04T09:04:46.040Z,34.83
2017-06-04T09:05:55.126Z,34.66
2017-06-04T09:07:04.180Z,34.56
2017-06-04T09:08:13.243Z,34.75
2017-06-04T09:09:21.999Z,34.66
2017-06-04T09:10:31.055Z,34.66
2017-06-04T09:11:40.118Z,34.54
2017-06-04T09:12:48.840Z,35.03
2017-06-04T09:13:57.854Z,34.44
2017-06-04T09:15:06.605Z,34.83
2017-06-04T09:16:15.636Z,34.83
2017-06-04T09:17:24.952Z,34.74
2017-06-04T09:18:34.595Z,34.64
2017-06-04T09:19:43.612Z,34.64
2017-06-04T09:20:52.667Z,34.44
2017-06-04T09:22:01.731Z,34.64
2017-06-04T09:23:11.089Z,34.64
2017-06-04T09:24:19.873Z,34.64
2017-06-04T09:25:28.932Z,34.93
2017-06-04T09:26:37.692Z,34.44
2017-06-04T09:27:46.439Z,34.74
2017-06-04T09:28:55.469Z,34.74
2017-06-04T09:30:04.487Z,34.44
2017-06-04T09:31:13.544Z,34.54
2017-06-04T09:32:22.306Z,34.83
2017-06-04T09:33:31.664Z,34.64
2017-06-04T09:34:40.722Z,35.03
2017-06-04T09:35:49.475Z,34.43
2017-06-04T09:36:58.839Z,34.64
2017-06-04T09:38:07.899Z,34.35
2017-06-04T09:39:16.629Z,34.35
2017-06-04T09:40:25.646Z,34.44
2017-06-04T09:41:34.708Z,34.44
2017-06-04T09:42:43.442Z,34.44
2017-06-04T09:43:52.764Z,33.96
2017-06-04T09:45:02.277Z,34.16
2017-06-04T09:46:11.343Z,34.06
2017-06-04T09:47:20.110Z,34.25
2017-06-04T09:48:29.170Z,34.16
2017-06-04T09:49:37.933Z,34.44
2017-06-04T09:50:47.296Z,34.54
2017-06-04T09:51:56.357Z,34.54
2017-06-04T09:53:05.105Z,34.64
2017-06-04T09:54:14.162Z,34.81
2017-06-04T09:55:22.917Z,34.43
2017-06-04T09:56:31.646Z,34.72
2017-06-04T09:57:40.935Z,34.72
2017-06-04T09:58:49.649Z,34.91
2017-06-04T09:59:58.706Z,34.33
2017-06-04T10:01:07.480Z,34.62
2017-06-04T10:02:16.211Z,34.62
2017-06-04T10:03:24.923Z,34.53
2017-06-04T10:04:33.682Z,35.03
2017-06-04T10:05:42.439Z,34.93
2017-06-04T10:06:51.196Z,34.54
2017-06-04T10:08:00.529Z,34.16
2017-06-04T10:09:09.844Z,33.96
2017-06-04T10:10:18.901Z,34.35
2017-06-04T10:11:27.661Z,34.35
2017-06-04T10:12:36.416Z,34.44
2017-06-04T10:13:45.778Z,34.06
2017-06-04T10:14:55.002Z,33.76
2017-06-04T10:16:03.764Z,33.96
2017-06-04T10:17:12.817Z,33.86
2017-06-04T10:18:21.869Z,33.86
2017-06-04T10:19:30.624Z,33.67
2017-06-04T10:20:39.377Z,33.47
2017-06-04T10:21:48.120Z,33.47
2017-06-04T10:22:57.146Z,33.47
2017-06-04T10:24:05.874Z,33.09
2017-06-04T10:25:14.596Z,33.09
2017-06-04T10:26:23.346Z,33.09
2017-06-04T10:27:32.426Z,32.99
2017-06-04T10:28:41.495Z,33.01
2017-06-04T10:29:50.556Z,32.81
2017-06-04T10:30:59.611Z,32.81
2017-06-04T10:32:08.374Z,32.81
2017-06-04T10:33:17.408Z,32.91
2017-06-04T10:34:26.403Z,32.91
2017-06-04T10:35:35.090Z,32.71
2017-06-04T10:36:44.087Z,32.71
2017-06-04T10:37:53.407Z,32.71
2017-06-04T10:39:02.147Z,32.32
2017-06-04T10:40:10.863Z,32.52
2017-06-04T10:41:19.622Z,32.71
2017-06-04T10:42:28.676Z,32.62
2017-06-04T10:43:37.713Z,32.5
2017-06-04T10:44:46.425Z,32.89
2017-06-04T10:45:55.153Z,32.89
2017-06-04T10:47:04.170Z,33.09
2017-06-04T10:48:13.251Z,32.97
2017-06-04T10:49:22.289Z,33.07
2017-06-04T10:50:31.313Z,32.97
2017-06-04T10:51:40.364Z,33.46
2017-06-04T10:52:49.429Z,33.65
2017-06-04T10:53:58.163Z,33.56
2017-06-04T10:55:06.878Z,33.75
2017-06-04T10:56:15.933Z,33.56
2017-06-04T10:57:24.684Z,33.64
2017-06-04T10:58:33.411Z,33.44
2017-06-04T10:59:42.128Z,33.54
2017-06-04T11:00:51.157Z,33.73
2017-06-04T11:01:59.877Z,33.64
2017-06-04T11:03:09.240Z,33.44
2017-06-04T11:04:17.993Z,33.44
2017-06-04T11:05:26.749Z,33.83
2017-06-04T11:06:35.781Z,33.73
2017-06-04T11:07:45.109Z,33.73
2017-06-04T11:08:54.177Z,33.54
2017-06-04T11:10:02.928Z,33.34
2017-06-04T11:11:12.287Z,33.44
2017-06-04T11:12:21.347Z,33.26
2017-06-04T11:13:30.103Z,33.26
2017-06-04T11:14:38.862Z,33.07
2017-06-04T11:15:47.622Z,32.87
2017-06-04T11:16:56.677Z,32.87
2017-06-04T11:18:05.430Z,32.49
2017-06-04T11:19:14.493Z,32.49
2017-06-04T11:20:23.242Z,32.31
2017-06-04T11:21:32.309Z,32.31
2017-06-04T11:22:41.101Z,32.21
2017-06-04T11:23:50.156Z,32.31
2017-06-04T11:24:59.221Z,31.92
2017-06-04T11:26:07.985Z,32.31
2017-06-04T11:27:16.721Z,31.94
2017-06-04T11:28:25.437Z,31.84
2017-06-04T11:29:34.193Z,31.84
2017-06-04T11:30:42.943Z,31.45
2017-06-04T11:31:51.736Z,31.55
2017-06-04T11:33:01.070Z,31.74
2017-06-04T11:34:09.783Z,31.35
2017-06-04T11:35:18.534Z,31.26
2017-06-04T11:36:27.569Z,31.07
2017-06-04T11:37:36.611Z,31.35
2017-06-04T11:38:45.758Z,30.68
2017-06-04T11:39:54.770Z,30.97
2017-06-04T11:41:03.836Z,30.87
2017-06-04T11:42:12.594Z,31.07
2017-06-04T11:43:21.649Z,30.68
2017-06-04T11:44:31.043Z,30.87
2017-06-04T11:45:39.800Z,30.58
2017-06-04T11:46:48.544Z,30.79
2017-06-04T11:47:57.577Z,31.18
2017-06-04T11:49:06.366Z,31.37
2017-06-04T11:50:15.093Z,30.98
2017-06-04T11:51:24.087Z,30.98
2017-06-04T11:52:33.114Z,30.88
2017-06-04T11:53:41.907Z,30.98
2017-06-04T11:54:51.264Z,30.4
2017-06-04T11:56:00.619Z,30.79
2017-06-04T11:57:09.638Z,30.59
2017-06-04T11:58:18.373Z,29.52
2017-06-04T11:59:27.067Z,29.72
2017-06-04T12:00:36.082Z,30.4
2017-06-04T12:01:44.843Z,29.91
2017-06-04T12:02:53.913Z,30.3
2017-06-04T12:04:03.148Z,30.4
2017-06-04T12:05:12.784Z,30.21
2017-06-04T12:06:21.539Z,30.3
2017-06-04T12:07:30.303Z,29.82
2017-06-04T12:08:39.322Z,28.94
2017-06-04T12:09:48.035Z,29.52
2017-06-04T12:10:57.101Z,29.72
2017-06-04T12:12:06.440Z,29.24
2017-06-04T12:13:15.473Z,29.43
2017-06-04T12:14:24.210Z,29.62
2017-06-04T12:15:33.235Z,29.82
2017-06-04T12:16:42.002Z,29.52
2017-06-04T12:17:51.062Z,29.93
2017-06-04T12:19:00.124Z,29.72
2017-06-04T12:20:09.484Z,29.74
2017-06-04T12:21:18.237Z,29.35
2017-06-04T12:22:26.999Z,29.54
2017-06-04T12:23:35.767Z,29.74
2017-06-04T12:24:44.529Z,29.54
2017-06-04T12:25:53.284Z,29.44
2017-06-04T12:27:02.044Z,29.44
2017-06-04T12:28:11.100Z,29.44
2017-06-04T12:29:20.161Z,28.86
2017-06-04T12:30:29.223Z,29.35
2017-06-04T12:31:38.285Z,28.96
2017-06-04T12:32:47.047Z,28.76
2017-06-04T12:33:55.798Z,28.66
2017-06-04T12:35:05.164Z,29.15
2017-06-04T12:36:14.206Z,28.57
2017-06-04T12:37:22.921Z,28.86
2017-06-04T12:38:31.682Z,29.05
2017-06-04T12:39:40.442Z,29.05
2017-06-04T12:40:49.504Z,28.66
2017-06-04T12:41:58.880Z,28.86
2017-06-04T12:43:07.935Z,28.57
2017-06-04T12:44:16.691Z,28.86
2017-06-04T12:45:25.442Z,28.86
2017-06-04T12:46:34.172Z,28.47
2017-06-04T12:47:42.888Z,28.38
2017-06-04T12:48:51.948Z,28.57
2017-06-04T12:50:00.989Z,28.66
2017-06-04T12:51:10.008Z,28.66
2017-06-04T12:52:19.064Z,28.76
2017-06-04T12:53:28.117Z,28.66
2017-06-04T12:54:36.877Z,29.05
2017-06-04T12:55:45.637Z,28.76
2017-06-04T12:56:54.697Z,28.96
2017-06-04T12:58:03.987Z,28.86
2017-06-04T12:59:13.351Z,29.05
2017-06-04T13:00:22.384Z,29.43
2017-06-04T13:01:31.106Z,28.76
2017-06-04T13:02:40.173Z,29.05
2017-06-04T13:03:49.230Z,29.15
2017-06-04T13:04:58.288Z,29.04
2017-06-04T13:06:07.045Z,29.15
2017-06-04T13:07:16.136Z,29.72
2017-06-04T13:08:24.922Z,29.33
2017-06-04T13:09:33.671Z,29.82
2017-06-04T13:10:42.698Z,29.14
2017-06-04T13:11:51.417Z,29.24
2017-06-04T13:13:00.479Z,29.52
2017-06-04T13:14:09.847Z,30.01
2017-06-04T13:15:18.603Z,29.91
2017-06-04T13:16:27.328Z,29.62
2017-06-04T13:17:36.052Z,30.11
2017-06-04T13:18:44.788Z,29.72
2017-06-04T13:19:53.504Z,29.71
2017-06-04T13:21:02.258Z,29.8
2017-06-04T13:22:11.325Z,29.8
2017-06-04T13:23:20.682Z,29.9
2017-06-04T13:24:29.434Z,29.9
2017-06-04T13:25:38.498Z,30
2017-06-04T13:26:47.257Z,29.9
2017-06-04T13:27:56.605Z,30
2017-06-04T13:29:05.355Z,30
2017-06-04T13:30:14.107Z,30
2017-06-04T13:31:22.895Z,30
2017-06-04T13:32:31.648Z,29.8
2017-06-04T13:33:40.705Z,29.12
2017-06-04T13:34:50.074Z,29.51
2017-06-04T13:35:58.831Z,29.02
2017-06-04T13:37:07.907Z,29.41
2017-06-04T13:38:16.672Z,28.93
2017-06-04T13:39:25.426Z,29.41
2017-06-04T13:40:34.460Z,29.14
2017-06-04T13:41:43.470Z,28.75
2017-06-04T13:42:52.232Z,29.14
2017-06-04T13:44:01.293Z,29.22
2017-06-04T13:45:10.664Z,28.83
2017-06-04T13:46:19.728Z,29.41
2017-06-04T13:47:28.483Z,29.32
2017-06-04T13:48:37.821Z,29.02
2017-06-04T13:49:46.836Z,28.93
2017-06-04T13:50:55.595Z,29.51
2017-06-04T13:52:04.883Z,29.61
2017-06-04T13:53:13.903Z,29.9
2017-06-04T13:54:22.962Z,30.09
2017-06-04T13:55:32.018Z,29.8
2017-06-04T13:56:40.757Z,30.08
2017-06-04T13:57:50.378Z,30.27
2017-06-04T13:58:59.737Z,30.37
2017-06-04T14:00:08.802Z,30.27
2017-06-04T14:01:17.839Z,30.37
2017-06-04T14:02:26.856Z,29.79
2017-06-04T14:03:35.585Z,30.27
2017-06-04T14:04:44.295Z,30.18
2017-06-04T14:05:53.051Z,30.18
2017-06-04T14:07:02.048Z,29.88
2017-06-04T14:08:11.105Z,29.79
2017-06-04T14:09:19.856Z,30.27
2017-06-04T14:10:28.918Z,30.37
2017-06-04T14:11:37.973Z,30.18
2017-06-04T14:12:47.028Z,30.18
2017-06-04T14:13:56.084Z,30.27
2017-06-04T14:15:05.072Z,30.18
2017-06-04T14:16:14.130Z,30.37
2017-06-04T14:17:22.885Z,30.37
2017-06-04T14:18:31.942Z,30.18
2017-06-04T14:19:40.981Z,30.08
2017-06-04T14:20:49.701Z,30.18
2017-06-04T14:21:59.060Z,30.57
2017-06-04T14:23:08.123Z,30.57
2017-06-04T14:24:16.858Z,30.55
2017-06-04T14:25:25.852Z,30.84
2017-06-04T14:26:34.570Z,30.74
2017-06-04T14:27:43.621Z,30.94
2017-06-04T14:28:52.992Z,31.23
2017-06-04T14:30:02.094Z,31.42
2017-06-04T14:31:11.155Z,31.52
2017-06-04T14:32:19.909Z,31.52
2017-06-04T14:33:28.967Z,31.71
2017-06-04T14:34:37.724Z,32.1
2017-06-04T14:35:46.489Z,31.99
2017-06-04T14:36:56.153Z,32.2
2017-06-04T14:38:04.920Z,32.37
2017-06-04T14:39:13.977Z,32.18
2017-06-04T14:40:22.730Z,32.49
2017-06-04T14:41:31.773Z,32.67
2017-06-04T14:42:41.097Z,32.76
2017-06-04T14:43:49.877Z,32.86
2017-06-04T14:44:58.633Z,32.76
2017-06-04T14:46:07.964Z,33.06
2017-06-04T14:47:16.678Z,32.96
2017-06-04T14:48:25.733Z,33.15
2017-06-04T14:49:34.791Z,33.25
2017-06-04T14:50:43.843Z,33.34